Terminal Aerodrome Forecast
Issued by NWS North Platte, NE

Home | Current Version | Previous Version | Text Only | Print | Product List | Glossary Off
Versions: 1 2 3 4 5 6 7 8 9 10 11 12 13 14 15 16 17

000
FTUS43 KLBF 231000 AAA
TAFVTN
TAF AMD
KVTN 231022Z 2310/2406 32017G24KT P6SM FEW070 OVC120
     FM231600 32020G30KT P6SM SCT120
     FM231900 32026G37KT P6SM BKN035
     FM240000 32020G30KT P6SM OVC030=

USA.gov is the U.S. government's official web portal to all federal, state and local government web resources and services.